Time;durP1;ratioP1;P1;durP2;ratioP2;P2;SDS_P1;SDS_P2;PMS_P1;PMS_P2;Temp;Humidity;BMP_temperature;BMP_pressure;BME280_temperature;BME280_humidity;BME280_pressure;Samples;Min_cycle;Max_cycle;Signal;HPM_P1;HPM_P2
2021/12/31 00:02:21;;;;;;;3.83;2.05;;;;;;;12.30;87.97;100522.13;4902568;29;20080;-82
2021/12/31 00:04:52;;;;;;;3.35;1.23;;;;;;;12.34;87.56;100523.38;4902650;29;20036;-83
2021/12/31 00:07:21;;;;;;;3.45;1.30;;;;;;;12.35;87.46;100527.72;4885411;29;20134;-82
2021/12/31 00:09:47;;;;;;;3.30;1.23;;;;;;;12.37;87.25;100515.63;4902610;29;20036;-80
2021/12/31 00:12:16;;;;;;;3.58;1.35;;;;;;;12.40;86.58;100517.09;4885962;29;20384;-83
2021/12/31 00:14:41;;;;;;;3.92;1.50;;;;;;;12.40;86.70;100504.41;4901878;29;20063;-82
2021/12/31 00:17:07;;;;;;;4.60;1.38;;;;;;;12.41;86.55;100524.16;4902490;29;20472;-84
2021/12/31 00:19:38;;;;;;;3.25;1.38;;;;;;;12.42;86.50;100523.13;4886442;29;20032;-85
2021/12/31 00:22:21;;;;;;;6.30;1.92;;;;;;;12.43;86.29;100524.78;4902978;29;20028;-80
2021/12/31 00:24:58;;;;;;;3.50;1.17;;;;;;;12.46;86.07;100525.19;4902421;29;20032;-86
2021/12/31 00:27:26;;;;;;;4.03;1.48;;;;;;;12.47;85.76;100510.63;4900801;29;20104;-80
2021/12/31 00:29:52;;;;;;;6.40;1.60;;;;;;;12.48;85.40;100512.28;4886693;29;20052;-83
2021/12/31 00:32:18;;;;;;;2.92;1.05;;;;;;;12.51;85.13;100509.16;4886836;29;20400;-82
2021/12/31 00:34:44;;;;;;;4.35;1.60;;;;;;;12.55;85.09;100509.53;4902881;29;20460;-85
2021/12/31 00:37:10;;;;;;;7.13;2.13;;;;;;;12.55;84.82;100511.41;4903457;29;20032;-84
2021/12/31 00:39:35;;;;;;;3.67;1.45;;;;;;;12.54;84.58;100510.56;4886347;29;20040;-82
2021/12/31 00:42:03;;;;;;;3.90;1.45;;;;;;;12.57;84.48;100510.16;4888021;29;20427;-82
2021/12/31 00:44:29;;;;;;;5.82;1.48;;;;;;;12.58;84.28;100502.88;4902300;29;20132;-82
2021/12/31 00:46:55;;;;;;;4.72;1.60;;;;;;;12.59;84.17;100499.13;4903101;29;20045;-82
2021/12/31 00:49:23;;;;;;;3.67;1.90;;;;;;;12.61;83.44;100500.56;4885169;29;20032;-84
2021/12/31 00:51:49;;;;;;;5.50;1.48;;;;;;;12.64;83.14;100502.84;4903853;29;20037;-82
2021/12/31 00:54:14;;;;;;;3.47;1.25;;;;;;;12.68;82.95;100501.38;4902686;29;20039;-86
2021/12/31 00:56:39;;;;;;;3.63;1.35;;;;;;;12.71;82.58;100505.53;4884471;29;20045;-83
2021/12/31 00:59:05;;;;;;;4.50;1.67;;;;;;;12.73;82.58;100501.53;4886141;29;20071;-82
2021/12/31 01:01:32;;;;;;;3.97;1.55;;;;;;;12.76;82.17;100513.78;4885089;29;20033;-86
2021/12/31 01:03:57;;;;;;;3.03;1.00;;;;;;;12.75;82.52;100509.44;4901246;29;20032;-81
2021/12/31 01:06:32;;;;;;;3.08;1.02;;;;;;;12.75;82.10;100507.56;4885073;29;20108;-81
2021/12/31 01:08:57;;;;;;;2.67;1.08;;;;;;;12.75;82.18;100515.66;4901354;29;20033;-82
2021/12/31 01:11:23;;;;;;;3.25;1.33;;;;;;;12.77;81.93;100529.78;4901533;29;20040;-83
2021/12/31 01:14:02;;;;;;;2.67;1.13;;;;;;;12.74;82.05;100524.81;4904203;29;20423;-83
2021/12/31 01:16:37;;;;;;;2.75;1.05;;;;;;;12.75;81.89;100517.53;4904592;29;20040;-85
2021/12/31 01:21:31;;;;;;;4.78;1.45;;;;;;;12.85;80.74;100512.50;4905653;29;20043;-84
2021/12/31 01:24:01;;;;;;;4.72;1.25;;;;;;;12.91;80.15;100519.72;4889081;29;20025;-84
2021/12/31 01:26:31;;;;;;;3.38;0.98;;;;;;;12.95;79.97;100517.41;4905417;29;20032;-86
2021/12/31 01:29:00;;;;;;;2.63;1.30;;;;;;;12.97;79.81;100520.75;4888139;29;20032;-83
2021/12/31 01:31:26;;;;;;;4.22;1.00;;;;;;;12.94;79.84;100511.19;4904923;29;20091;-81
2021/12/31 01:33:52;;;;;;;;;;;;;;;12.95;79.53;100509.31;4905461;29;20024;-82
2021/12/31 01:36:18;;;;;;;2.88;0.90;;;;;;;12.94;79.67;100507.66;4905522;29;19977;-83
2021/12/31 01:38:45;;;;;;;3.22;0.80;;;;;;;12.94;79.63;100504.94;4906019;29;20384;-83
2021/12/31 01:41:11;;;;;;;4.43;0.82;;;;;;;12.95;79.22;100512.84;4889112;29;20093;-84
2021/12/31 01:43:37;;;;;;;2.33;0.70;;;;;;;12.98;78.96;100511.56;4904439;29;20036;-81
2021/12/31 01:46:10;;;;;;;;;;;;;;;13.02;78.60;100507.41;4905195;29;20391;-82
2021/12/31 01:48:48;;;;;;;3.20;0.93;;;;;;;13.05;78.29;100517.78;4906888;29;19919;-86
2021/12/31 01:51:14;;;;;;;2.95;0.90;;;;;;;13.03;78.32;100509.06;4907445;29;20610;-84
2021/12/31 01:53:39;;;;;;;4.43;1.15;;;;;;;13.03;78.23;100509.88;4909188;29;20048;-80
2021/12/31 01:56:05;;;;;;;;;;;;;;;13.02;78.36;100524.47;4909922;29;20040;-83
2021/12/31 01:58:30;;;;;;;4.15;0.98;;;;;;;13.01;78.02;100508.44;4909289;29;19917;-83
2021/12/31 02:01:03;;;;;;;2.40;0.73;;;;;;;13.00;78.36;100523.84;4911454;29;20063;-81
2021/12/31 02:03:31;;;;;;;3.47;1.65;;;;;;;13.01;78.05;100519.25;4893080;29;20036;-84
2021/12/31 02:05:57;;;;;;;2.72;0.73;;;;;;;12.99;78.20;100503.25;4911169;29;20037;-82
2021/12/31 02:08:22;;;;;;;2.72;0.90;;;;;;;13.04;77.63;100506.13;4912668;29;20112;-84
2021/12/31 02:10:52;;;;;;;2.15;0.85;;;;;;;13.15;77.17;100516.28;4916280;29;20088;-80
2021/12/31 02:13:20;;;;;;;2.88;0.98;;;;;;;13.22;76.24;100518.09;4916515;29;20056;-82
2021/12/31 02:15:45;;;;;;;3.05;0.85;;;;;;;13.17;76.95;100518.75;4913524;29;20028;-80
2021/12/31 02:18:11;;;;;;;1.83;0.70;;;;;;;13.12;76.97;100519.38;4904390;29;20123;-81
2021/12/31 02:20:41;;;;;;;3.47;1.15;;;;;;;13.11;77.31;100515.00;4904531;29;20111;-81
2021/12/31 02:23:17;;;;;;;3.50;0.90;;;;;;;13.08;77.11;100520.03;4904014;29;20036;-80
2021/12/31 02:25:42;;;;;;;2.22;1.05;;;;;;;13.03;77.58;100515.28;4904958;29;20482;-84
2021/12/31 02:28:08;;;;;;;3.15;0.90;;;;;;;13.02;77.44;100523.63;4905110;29;20032;-83
2021/12/31 02:30:33;;;;;;;2.85;1.08;;;;;;;13.05;77.28;100513.22;4907888;29;20036;-81
2021/12/31 02:32:59;;;;;;;2.78;1.00;;;;;;;13.07;77.31;100521.09;4907821;29;20037;-82
2021/12/31 02:35:25;;;;;;;;;;;;;;;13.07;76.80;100516.53;4909932;29;20047;-83
2021/12/31 02:37:51;;;;;;;3.03;1.05;;;;;;;13.05;76.98;100529.44;4893669;29;19911;-81
2021/12/31 02:40:17;;;;;;;;;;;;;;;13.06;76.90;100522.16;4897596;29;20035;-83
2021/12/31 02:42:43;;;;;;;1.73;0.90;;;;;;;13.10;76.63;100517.94;4913359;29;19966;-80
2021/12/31 02:45:11;;;;;;;1.98;0.73;;;;;;;13.09;76.86;100517.09;4914707;29;20055;-80
2021/12/31 02:47:42;;;;;;;2.80;0.98;;;;;;;13.09;76.63;100518.97;4914175;29;20092;-82
2021/12/31 02:50:11;;;;;;;2.60;1.15;;;;;;;13.10;76.33;100513.34;4913472;29;20034;-83
2021/12/31 02:52:36;;;;;;;3.15;1.08;;;;;;;13.07;76.72;100515.69;4913305;29;20021;-83
2021/12/31 02:55:02;;;;;;;2.38;0.80;;;;;;;13.07;76.89;100511.13;4908553;29;20035;-84
2021/12/31 02:57:27;;;;;;;4.28;0.90;;;;;;;13.07;76.52;100507.56;4903275;29;20425;-84
2021/12/31 02:59:53;;;;;;;2.95;0.85;;;;;;;13.07;76.53;100516.53;4902596;29;20051;-80
2021/12/31 03:02:24;;;;;;;1.58;0.77;;;;;;;13.09;76.30;100517.09;4901962;29;20069;-81
2021/12/31 03:04:51;;;;;;;1.75;0.88;;;;;;;13.12;75.83;100519.38;4902128;29;20464;-82
2021/12/31 03:07:19;;;;;;;2.17;0.90;;;;;;;13.10;75.92;100509.81;4902345;29;20055;-86
2021/12/31 03:09:47;;;;;;;3.15;0.70;;;;;;;13.07;75.96;100513.81;4902151;29;20060;-84
2021/12/31 03:12:14;;;;;;;2.17;0.98;;;;;;;13.07;76.31;100515.69;4902039;29;20552;-82
2021/12/31 03:14:43;;;;;;;4.93;1.50;;;;;;;13.07;76.32;100513.81;4885024;29;20040;-83
2021/12/31 03:17:09;;;;;;;2.20;0.80;;;;;;;13.07;76.65;100515.69;4902940;29;20036;-85
2021/12/31 03:19:35;;;;;;;4.28;1.02;;;;;;;13.06;76.19;100508.63;4902666;29;20064;-85
2021/12/31 03:22:01;;;;;;;1.58;0.80;;;;;;;13.03;76.47;100506.34;4901816;29;20056;-84
2021/12/31 03:24:26;;;;;;;2.53;0.80;;;;;;;13.03;76.96;100506.34;4900956;29;20041;-85
2021/12/31 03:26:51;;;;;;;2.95;1.17;;;;;;;13.01;76.47;100497.63;4900832;29;20164;-83
2021/12/31 03:29:17;;;;;;;2.85;1.00;;;;;;;13.06;76.23;100503.22;4900509;29;20037;-85
2021/12/31 03:31:43;;;;;;;3.40;1.02;;;;;;;13.07;76.12;100504.88;4900294;29;20043;-86
2021/12/31 03:34:10;;;;;;;4.57;0.77;;;;;;;13.05;76.28;100505.09;4901041;29;20048;-85
2021/12/31 03:36:36;;;;;;;2.58;0.77;;;;;;;13.06;76.04;100490.53;4883408;29;20135;-83
2021/12/31 03:39:02;;;;;;;3.70;0.80;;;;;;;13.10;76.11;100496.28;4901248;29;20040;-85
2021/12/31 03:41:27;;;;;;;1.90;0.85;;;;;;;13.09;76.13;100503.56;4900655;29;20460;-83
2021/12/31 03:43:52;;;;;;;1.65;0.70;;;;;;;13.07;76.13;100504.88;4883564;29;20064;-85
2021/12/31 03:46:18;;;;;;;;;;;;;;;13.06;76.19;100506.75;4900965;29;20035;-86
2021/12/31 03:48:43;;;;;;;2.03;0.70;;;;;;;13.06;76.12;100492.41;4900670;29;19959;-83
2021/12/31 03:51:08;;;;;;;;;;;;;;;13.09;75.78;100494.63;4901301;29;20041;-88
2021/12/31 03:53:34;;;;;;;2.25;1.00;;;;;;;13.11;75.71;100501.50;4900314;29;19911;-81
2021/12/31 03:55:59;;;;;;;;;;;;;;;13.11;75.78;100500.66;4900582;29;20467;-83
2021/12/31 03:58:24;;;;;;;2.57;0.70;;;;;;;13.12;75.46;100503.16;4901307;29;20277;-86
2021/12/31 04:00:50;;;;;;;1.63;0.73;;;;;;;13.12;75.46;100484.22;4900812;29;20612;-85
2021/12/31 04:03:16;;;;;;;;;;;;;;;13.12;75.60;100502.31;4884201;29;20037;-85
2021/12/31 04:05:42;;;;;;;4.18;0.95;;;;;;;13.14;75.46;100484.00;4900166;29;20022;-81
2021/12/31 04:08:09;;;;;;;1.63;0.80;;;;;;;13.18;74.94;100480.66;4901017;29;20575;-85
2021/12/31 04:10:35;;;;;;;1.48;0.68;;;;;;;13.24;74.44;100483.53;4900571;29;20083;-84
2021/12/31 04:13:00;;;;;;;3.25;0.57;;;;;;;13.27;74.41;100486.63;4901141;29;20119;-85
2021/12/31 04:15:26;;;;;;;3.22;1.38;;;;;;;13.24;74.52;100478.97;4884074;29;20187;-85
2021/12/31 04:17:51;;;;;;;;;;;;;;;13.20;74.88;100483.97;4900833;29;20110;-81
2021/12/31 04:20:31;;;;;;;2.03;1.00;;;;;;;13.20;74.60;100480.44;4900316;29;19916;-82
2021/12/31 04:22:58;;;;;;;2.47;0.82;;;;;;;13.18;74.81;100479.84;4900121;29;20028;-85
2021/12/31 04:25:23;;;;;;;2.25;0.82;;;;;;;13.18;74.58;100475.25;4899801;29;20440;-85
2021/12/31 04:27:49;;;;;;;3.15;0.85;;;;;;;13.22;74.34;100485.63;4900962;29;20088;-81
2021/12/31 04:30:15;;;;;;;;;;;;;;;13.23;74.13;100471.91;4901193;29;20036;-83
2021/12/31 04:32:40;;;;;;;0.85;0.50;;;;;;;13.24;74.25;100478.97;4900017;29;20351;-82
2021/12/31 04:35:11;;;;;;;;;;;;;;;13.24;74.23;100475.44;4900446;29;20032;-83
2021/12/31 04:37:37;;;;;;;2.13;0.80;;;;;;;13.23;74.42;100477.31;4900591;29;19911;-84
2021/12/31 04:40:02;;;;;;;2.25;0.65;;;;;;;13.23;74.02;100473.78;4901020;29;20025;-87
2021/12/31 04:42:27;;;;;;;2.05;0.82;;;;;;;13.22;74.18;100481.06;4900598;29;20036;-83
2021/12/31 04:44:53;;;;;;;1.83;0.73;;;;;;;13.20;74.29;100472.34;4883895;29;20042;-84
2021/12/31 04:47:18;;;;;;;1.47;0.80;;;;;;;13.19;74.30;100466.09;4899832;29;20751;-84
2021/12/31 04:49:43;;;;;;;1.73;0.68;;;;;;;13.19;74.39;100468.78;4885698;29;20293;-85
2021/12/31 04:52:09;;;;;;;1.83;0.80;;;;;;;13.21;74.34;100471.28;4903599;29;20121;-82
2021/12/31 04:54:34;;;;;;;2.22;0.70;;;;;;;13.22;74.18;100472.94;4887167;29;20156;-82
2021/12/31 04:57:00;;;;;;;2.15;0.85;;;;;;;13.25;73.80;100467.09;4903233;29;20468;-81
2021/12/31 04:59:26;;;;;;;5.10;1.00;;;;;;;13.24;74.05;100465.44;4903044;29;20040;-83
2021/12/31 05:01:51;;;;;;;1.70;0.60;;;;;;;13.25;74.09;100471.69;4886848;29;20036;-85
2021/12/31 05:04:17;;;;;;;;;;;;;;;13.21;74.27;100463.16;4886901;29;20080;-81
2021/12/31 05:06:42;;;;;;;2.47;0.70;;;;;;;13.23;73.91;100474.59;4902860;29;20339;-84
2021/12/31 05:09:08;;;;;;;;;;;;;;;13.25;73.79;100479.78;4903606;29;20033;-80
2021/12/31 05:11:33;;;;;;;2.22;0.70;;;;;;;13.31;73.42;100478.88;4902723;29;19911;-79
2021/12/31 05:13:58;;;;;;;2.70;0.77;;;;;;;13.28;73.49;100469.34;4902976;29;20043;-80
2021/12/31 05:16:24;;;;;;;1.48;0.70;;;;;;;13.27;73.57;100473.09;4903373;29;20257;-80
2021/12/31 05:18:49;;;;;;;;;;;;;;;13.27;73.75;100464.13;4903110;29;20047;-80
2021/12/31 05:21:14;;;;;;;2.13;0.60;;;;;;;13.25;73.62;100460.84;4902718;29;19959;-81
2021/12/31 05:23:40;;;;;;;1.77;0.90;;;;;;;13.27;73.57;100461.44;4903376;29;20076;-80
2021/12/31 05:26:05;;;;;;;2.00;0.70;;;;;;;13.25;73.77;100460.84;4903193;29;20261;-79
2021/12/31 05:28:32;;;;;;;1.77;0.70;;;;;;;13.25;73.59;100458.16;4902434;29;20312;-80
2021/12/31 05:30:58;;;;;;;2.05;0.93;;;;;;;13.22;73.84;100454.00;4902942;29;20036;-81
2021/12/31 05:33:23;;;;;;;1.38;0.68;;;;;;;13.19;73.78;100455.25;4902541;29;20041;-82
2021/12/31 05:35:48;;;;;;;;;;;;;;;13.21;73.90;100444.22;4903039;29;20064;-80
2021/12/31 05:38:15;;;;;;;1.77;0.70;;;;;;;13.20;73.71;100445.28;4902219;29;20256;-83
2021/12/31 05:40:40;;;;;;;3.10;0.90;;;;;;;13.19;74.03;100446.31;4902520;29;20316;-81
2021/12/31 05:43:06;;;;;;;3.45;0.95;;;;;;;13.14;74.16;100446.13;4902708;29;20115;-80
2021/12/31 05:45:31;;;;;;;1.73;0.75;;;;;;;13.10;74.38;100445.72;4902376;29;20075;-80
2021/12/31 05:47:56;;;;;;;2.27;0.83;;;;;;;13.08;74.67;100457.81;4902178;29;20028;-79
2021/12/31 05:50:28;;;;;;;1.55;0.70;;;;;;;13.08;74.34;100455.09;4901646;29;20271;-79
2021/12/31 05:52:57;;;;;;;2.70;0.70;;;;;;;13.06;74.28;100451.81;4902572;29;20487;-80
2021/12/31 05:55:23;;;;;;;1.98;0.88;;;;;;;13.06;74.42;100449.13;4901738;29;20048;-82
2021/12/31 05:57:48;;;;;;;2.28;0.73;;;;;;;13.02;74.65;100434.38;4902433;29;20032;-80
2021/12/31 06:00:14;;;;;;;1.45;0.65;;;;;;;12.98;74.94;100433.13;4902045;29;20055;-83
2021/12/31 06:02:39;;;;;;;;;;;;;;;12.93;75.03;100419.44;4903903;29;20111;-85
2021/12/31 06:05:05;;;;;;;2.65;0.85;;;;;;;12.88;75.34;100432.81;4903403;29;20022;-81
2021/12/31 06:07:30;;;;;;;2.00;0.70;;;;;;;12.83;75.52;100431.59;4902863;29;20499;-83
2021/12/31 06:09:56;;;;;;;1.92;1.00;;;;;;;12.80;75.59;100433.91;4903154;29;20070;-82
2021/12/31 06:12:23;;;;;;;;;;;;;;;12.78;75.77;100436.00;4886644;29;20464;-82
2021/12/31 06:14:49;;;;;;;1.73;0.85;;;;;;;12.76;75.72;100433.50;4902799;29;19919;-83
2021/12/31 06:17:17;;;;;;;;;;;;;;;12.78;75.62;100436.81;4903256;29;20123;-85
2021/12/31 06:19:45;;;;;;;2.70;1.17;;;;;;;12.76;75.87;100448.91;4902003;29;19955;-84
2021/12/31 06:22:10;;;;;;;3.45;0.95;;;;;;;12.73;76.05;100446.63;4901995;29;20036;-82
2021/12/31 06:24:36;;;;;;;3.75;1.05;;;;;;;12.70;76.02;100445.22;4901948;29;20476;-81
2021/12/31 06:27:01;;;;;;;1.80;0.70;;;;;;;12.68;76.31;100446.47;4902692;29;20036;-79
2021/12/31 06:29:26;;;;;;;;;;;;;;;12.65;76.56;100449.59;4902686;29;20096;-81
2021/12/31 06:31:52;;;;;;;3.28;0.73;;;;;;;12.63;76.63;100452.53;4885912;29;19918;-80
2021/12/31 06:34:17;;;;;;;1.95;0.70;;;;;;;12.60;76.87;100454.81;4902751;29;20045;-80
2021/12/31 06:36:42;;;;;;;2.97;0.70;;;;;;;12.56;77.17;100459.84;4886375;29;20197;-80
2021/12/31 06:39:08;;;;;;;;;;;;;;;12.52;77.10;100448.66;4902763;29;20074;-80
2021/12/31 06:41:33;;;;;;;2.85;0.80;;;;;;;12.47;77.57;100451.16;4901915;29;19962;-81
2021/12/31 06:43:59;;;;;;;1.70;0.80;;;;;;;12.40;77.78;100454.94;4901878;29;20051;-80
2021/12/31 06:46:24;;;;;;;1.23;0.60;;;;;;;12.35;78.27;100443.97;4902099;29;20045;-81
2021/12/31 06:48:49;;;;;;;1.83;0.70;;;;;;;12.31;78.17;100440.03;4901855;29;20736;-82
2021/12/31 06:51:15;;;;;;;1.67;0.80;;;;;;;12.30;78.30;100438.38;4902086;29;20264;-80
2021/12/31 06:53:41;;;;;;;1.30;0.70;;;;;;;12.33;78.23;100421.75;4902013;29;20585;-80
2021/12/31 06:56:06;;;;;;;3.28;0.80;;;;;;;12.30;78.04;100428.41;4905175;29;20375;-81
2021/12/31 06:58:32;;;;;;;;;;;;;;;12.30;78.46;100424.88;4907557;29;20040;-80
2021/12/31 07:00:57;;;;;;;2.40;0.85;;;;;;;12.30;78.12;100438.38;4907229;29;19912;-81
2021/12/31 07:03:22;;;;;;;;;;;;;;;12.32;78.17;100417.38;4906618;29;20120;-81
2021/12/31 07:05:48;;;;;;;2.13;0.90;;;;;;;12.29;78.44;100436.72;4910012;29;19970;-81
2021/12/31 07:08:13;;;;;;;1.83;0.82;;;;;;;12.31;77.72;100429.22;4905743;29;20061;-82
2021/12/31 07:10:40;;;;;;;1.88;0.77;;;;;;;12.28;77.84;100437.75;4901374;29;20049;-80
2021/12/31 07:13:10;;;;;;;2.38;0.80;;;;;;;12.26;78.25;100427.16;4901513;29;20052;-81
2021/12/31 07:15:48;;;;;;;1.88;0.85;;;;;;;12.23;78.19;100433.00;4902414;29;20082;-82
2021/12/31 07:18:14;;;;;;;3.17;0.90;;;;;;;12.18;78.57;100440.94;4885450;29;20384;-80
2021/12/31 07:20:40;;;;;;;1.55;0.80;;;;;;;12.14;78.38;100443.22;4887911;29;20106;-81
2021/12/31 07:23:11;;;;;;;2.47;1.10;;;;;;;12.13;78.43;100446.16;4902886;29;20060;-81
2021/12/31 07:25:40;;;;;;;1.95;0.80;;;;;;;12.14;78.27;100445.94;4902890;29;20388;-80
2021/12/31 07:28:07;;;;;;;1.80;0.70;;;;;;;12.14;77.88;100445.09;4902675;29;20088;-81
2021/12/31 07:30:33;;;;;;;2.55;0.82;;;;;;;12.12;78.32;100453.41;4901858;29;20039;-81
2021/12/31 07:32:58;;;;;;;4.63;1.13;;;;;;;12.11;77.99;100443.66;4902209;29;20037;-82
2021/12/31 07:35:24;;;;;;;2.17;0.98;;;;;;;12.15;78.14;100453.00;4901981;29;20544;-82
2021/12/31 07:37:56;;;;;;;3.35;0.82;;;;;;;12.09;78.42;100450.31;4902041;29;20040;-81
2021/12/31 07:40:27;;;;;;;2.67;0.85;;;;;;;12.06;78.93;100448.88;4902988;29;20047;-81
2021/12/31 07:42:53;;;;;;;2.10;0.77;;;;;;;12.01;78.78;100442.44;4903160;29;20028;-79
2021/12/31 07:45:18;;;;;;;2.42;1.00;;;;;;;11.96;78.81;100440.41;4902662;29;20047;-81
2021/12/31 07:47:44;;;;;;;3.22;0.93;;;;;;;11.92;79.59;100443.72;4901614;29;20037;-82
2021/12/31 07:50:09;;;;;;;;;;;;;;;11.90;79.31;100437.72;4901965;29;20037;-81
2021/12/31 07:52:35;;;;;;;3.33;1.17;;;;;;;11.86;79.54;100437.31;4901439;29;19982;-82
2021/12/31 07:55:00;;;;;;;2.17;0.95;;;;;;;11.86;79.50;100444.56;4901634;29;20119;-82
2021/12/31 07:57:25;;;;;;;;;;;;;;;11.84;79.18;100447.47;4902037;29;20047;-81
2021/12/31 07:59:51;;;;;;;3.30;1.00;;;;;;;11.84;79.45;100444.78;4900375;29;19911;-81
2021/12/31 08:02:16;;;;;;;1.83;0.80;;;;;;;11.82;79.04;100452.28;4901078;29;20269;-82
2021/12/31 08:04:41;;;;;;;;;;;;;;;11.79;79.45;100453.53;4900324;29;20020;-79
2021/12/31 08:07:06;;;;;;;3.75;0.75;;;;;;;11.79;79.36;100452.72;4888608;29;20010;-80
2021/12/31 08:09:32;;;;;;;3.05;1.10;;;;;;;11.80;79.62;100454.38;4900652;29;20049;-80
2021/12/31 08:11:57;;;;;;;2.65;1.20;;;;;;;11.80;79.19;100460.59;4900565;29;20037;-82
2021/12/31 08:14:23;;;;;;;3.08;0.85;;;;;;;11.80;79.01;100448.97;4900102;29;20037;-81
2021/12/31 08:16:48;;;;;;;2.33;1.00;;;;;;;11.80;79.35;100449.81;4900874;29;20406;-79
2021/12/31 08:19:14;;;;;;;2.42;1.08;;;;;;;11.79;79.03;100455.41;4901262;29;20530;-80
2021/12/31 08:21:39;;;;;;;6.38;1.50;;;;;;;11.78;78.74;100468.06;4900995;29;20459;-81
2021/12/31 08:24:04;;;;;;;2.55;1.00;;;;;;;11.77;79.03;100468.28;4903236;29;20100;-80
2021/12/31 08:26:30;;;;;;;3.78;1.00;;;;;;;11.76;78.84;100470.16;4905740;29;20123;-82
2021/12/31 08:28:55;;;;;;;2.63;1.00;;;;;;;11.72;78.81;100463.47;4903768;29;20033;-80
2021/12/31 08:31:21;;;;;;;2.72;0.88;;;;;;;11.71;79.31;100461.81;4904931;29;20360;-81
2021/12/31 08:33:47;;;;;;;2.47;1.02;;;;;;;11.68;79.15;100461.41;4905137;29;20452;-81
2021/12/31 08:36:12;;;;;;;4.20;1.40;;;;;;;11.68;79.00;100462.25;4903248;29;20037;-82
2021/12/31 08:38:38;;;;;;;2.75;0.90;;;;;;;11.66;79.09;100463.47;4904933;29;20099;-81
2021/12/31 08:41:04;;;;;;;2.35;0.90;;;;;;;11.67;79.23;100459.75;4904735;29;20391;-81
2021/12/31 08:43:29;;;;;;;3.22;1.15;;;;;;;11.64;79.58;100466.41;4904570;29;20039;-82
2021/12/31 08:45:55;;;;;;;3.58;0.95;;;;;;;11.67;79.33;100462.44;4905930;29;20062;-82
2021/12/31 08:48:20;;;;;;;3.60;0.95;;;;;;;11.65;79.23;100472.63;4904979;29;20036;-79
2021/12/31 08:50:46;;;;;;;2.80;1.00;;;;;;;11.66;79.06;100468.88;4905931;29;20032;-82
2021/12/31 08:53:12;;;;;;;2.70;1.00;;;;;;;11.67;79.27;100478.63;4904455;29;20036;-81
2021/12/31 08:55:37;;;;;;;2.75;1.02;;;;;;;11.66;78.81;100474.28;4904500;29;20055;-81
2021/12/31 08:58:02;;;;;;;4.00;1.00;;;;;;;11.66;79.18;100479.69;4904335;29;20076;-82
2021/12/31 09:00:28;;;;;;;1.80;0.88;;;;;;;11.66;79.03;100483.22;4904408;29;20067;-79
2021/12/31 09:02:53;;;;;;;;;;;;;;;11.70;78.90;100484.44;4904440;29;20028;-81
2021/12/31 09:05:19;;;;;;;3.42;1.00;;;;;;;11.68;78.58;100483.81;4904729;29;19920;-83
2021/12/31 09:07:44;;;;;;;4.18;0.93;;;;;;;11.67;78.79;100481.34;4904999;29;20452;-80
2021/12/31 09:10:10;;;;;;;2.45;0.88;;;;;;;11.67;78.90;100484.03;4904725;29;20100;-82
2021/12/31 09:12:36;;;;;;;;;;;;;;;11.68;78.97;100489.22;4905141;29;20032;-83
2021/12/31 09:15:03;;;;;;;2.45;0.93;;;;;;;11.74;78.38;100485.69;4904483;29;19930;-81
2021/12/31 09:17:28;;;;;;;2.40;0.90;;;;;;;11.71;78.81;100491.50;4905339;29;20063;-78
2021/12/31 09:19:53;;;;;;;3.17;1.03;;;;;;;11.75;78.02;100490.06;4905077;29;20428;-78
2021/12/31 09:22:19;;;;;;;2.67;1.00;;;;;;;11.73;78.39;100480.50;4904802;29;20721;-79
2021/12/31 09:24:44;;;;;;;2.70;0.80;;;;;;;11.68;78.34;100483.00;4886919;29;20360;-78
2021/12/31 09:27:10;;;;;;;1.70;0.77;;;;;;;11.69;78.78;100473.88;4905772;29;20111;-77
2021/12/31 09:29:35;;;;;;;3.25;1.02;;;;;;;11.70;78.44;100480.91;4903027;29;20043;-78
2021/12/31 09:32:01;;;;;;;;;;;;;;;11.71;78.59;100471.78;4905337;29;20524;-82
2021/12/31 09:34:26;;;;;;;2.65;1.20;;;;;;;11.75;78.34;100463.06;4902507;29;19912;-80
2021/12/31 09:36:51;;;;;;;2.75;1.25;;;;;;;11.78;78.16;100478.03;4904677;29;20025;-79
2021/12/31 09:39:17;;;;;;;2.50;0.98;;;;;;;11.78;77.99;100473.47;4903966;29;20124;-80
2021/12/31 09:41:43;;;;;;;3.53;1.10;;;;;;;11.80;78.21;100481.38;4903884;29;20041;-79
2021/12/31 09:44:10;;;;;;;2.03;0.82;;;;;;;11.82;78.28;100484.69;4904387;29;20060;-82
2021/12/31 09:46:35;;;;;;;3.58;0.95;;;;;;;11.81;77.80;100478.47;4904777;29;20119;-79
2021/12/31 09:49:01;;;;;;;2.55;0.93;;;;;;;11.83;77.64;100483.63;4888629;29;20060;-80
2021/12/31 09:51:27;;;;;;;2.53;1.13;;;;;;;11.84;77.73;100469.06;4905785;29;20052;-83
2021/12/31 09:53:58;;;;;;;3.38;1.40;;;;;;;11.82;77.84;100485.47;4905132;29;20101;-80
2021/12/31 09:56:23;;;;;;;2.47;0.90;;;;;;;11.81;77.35;100478.47;4903764;29;20036;-81
2021/12/31 09:58:49;;;;;;;3.92;1.00;;;;;;;11.85;77.90;100478.00;4905222;29;20036;-81
2021/12/31 10:01:14;;;;;;;2.37;0.90;;;;;;;11.84;77.54;100479.88;4905071;29;20403;-81
2021/12/31 10:03:40;;;;;;;1.95;0.80;;;;;;;11.86;76.95;100476.97;4904265;29;20261;-80
2021/12/31 10:06:14;;;;;;;3.03;1.10;;;;;;;11.84;77.38;100482.56;4904007;29;20048;-79
2021/12/31 10:08:42;;;;;;;1.92;0.80;;;;;;;11.88;77.57;100483.81;4903216;29;20040;-80
2021/12/31 10:11:25;;;;;;;2.67;1.17;;;;;;;11.88;77.15;100474.88;4902855;29;20153;-81
2021/12/31 10:13:56;;;;;;;2.22;0.80;;;;;;;11.89;77.20;100471.97;4902861;29;20037;-84
2021/12/31 10:16:39;;;;;;;3.42;0.90;;;;;;;11.87;77.63;100474.06;4902972;29;20036;-79
2021/12/31 10:19:15;;;;;;;2.20;0.90;;;;;;;11.85;77.35;100476.13;4904427;29;20464;-79
2021/12/31 10:21:49;;;;;;;2.15;0.85;;;;;;;11.88;77.47;100472.19;4904739;29;20499;-82
2021/12/31 10:24:39;;;;;;;1.88;0.75;;;;;;;11.93;77.43;100467.00;4905646;29;20040;-82
2021/12/31 10:27:12;;;;;;;2.88;0.88;;;;;;;11.92;77.34;100470.72;4905242;29;20464;-79
2021/12/31 10:30:04;;;;;;;3.40;0.93;;;;;;;11.96;76.80;100477.38;4904200;29;20032;-81
2021/12/31 10:32:31;;;;;;;2.22;0.80;;;;;;;11.96;76.83;100480.91;4887289;29;20075;-81
2021/12/31 10:35:20;;;;;;;2.13;0.98;;;;;;;12.01;76.42;100493.75;4906567;29;20052;-82
2021/12/31 10:37:52;;;;;;;2.80;0.80;;;;;;;12.01;76.50;100489.19;4905507;29;20033;-81
2021/12/31 10:40:28;;;;;;;3.63;0.95;;;;;;;12.06;76.29;100483.13;4904691;29;20539;-81
2021/12/31 10:43:15;;;;;;;2.45;0.85;;;;;;;12.06;76.00;100477.75;4904897;29;20112;-86
2021/12/31 10:46:09;;;;;;;1.95;0.93;;;;;;;12.08;76.36;100473.78;4887869;29;20045;-80
2021/12/31 10:48:42;;;;;;;3.35;0.90;;;;;;;12.10;76.13;100471.72;4904328;29;20063;-82
2021/12/31 10:51:09;;;;;;;3.00;1.30;;;;;;;12.11;76.08;100473.38;4904367;29;20032;-80
2021/12/31 10:53:37;;;;;;;2.10;0.88;;;;;;;12.12;75.70;100468.78;4903666;29;20040;-80
2021/12/31 10:56:08;;;;;;;2.97;0.95;;;;;;;12.13;75.61;100460.47;4904424;29;20033;-83
2021/12/31 10:58:33;;;;;;;3.15;0.95;;;;;;;12.15;75.67;100469.19;4904713;29;20039;-80
2021/12/31 11:00:59;;;;;;;2.80;0.90;;;;;;;12.17;75.91;100460.88;4904750;29;20037;-81
2021/12/31 11:03:25;;;;;;;2.75;0.75;;;;;;;12.19;75.95;100458.78;4904458;29;20028;-81
2021/12/31 11:05:53;;;;;;;2.60;1.00;;;;;;;12.21;75.15;100462.09;4903420;29;20464;-79
2021/12/31 11:08:19;;;;;;;3.20;1.10;;;;;;;12.23;75.25;100445.66;4903542;29;20052;-78
2021/12/31 11:10:45;;;;;;;2.72;1.02;;;;;;;12.22;75.30;100441.31;4903143;29;20043;-81
2021/12/31 11:13:18;;;;;;;3.92;1.05;;;;;;;12.22;74.99;100444.84;4905342;29;20040;-80
2021/12/31 11:15:45;;;;;;;2.45;0.90;;;;;;;12.25;75.15;100432.78;4904005;29;20040;-82
2021/12/31 11:18:12;;;;;;;1.60;0.70;;;;;;;12.23;74.69;100426.75;4904614;29;20028;-80
2021/12/31 11:20:39;;;;;;;1.85;0.80;;;;;;;12.23;74.88;100418.66;4889182;29;20028;-82
2021/12/31 11:23:05;;;;;;;5.10;1.00;;;;;;;12.24;74.83;100412.22;4903941;29;20032;-80
2021/12/31 11:25:32;;;;;;;2.75;1.25;;;;;;;12.26;74.93;100419.06;4904553;29;20040;-81
2021/12/31 11:27:59;;;;;;;3.33;1.23;;;;;;;12.27;74.65;100422.59;4903496;29;20118;-81
2021/12/31 11:30:28;;;;;;;2.17;0.90;;;;;;;12.29;74.44;100421.34;4905431;29;20029;-82
2021/12/31 11:33:09;;;;;;;3.08;1.10;;;;;;;12.30;74.06;100446.47;4904731;29;20080;-81
2021/12/31 11:35:46;;;;;;;3.03;0.88;;;;;;;12.32;74.25;100457.91;4903719;29;20036;-81